Boeing 737-800 авиакомпании Air India Express прилетел из Дубая в грязь

Опубликовано 08.12.2021 в рубрике Новости. Автор:

Boeing 737-8HGSFPWL авиакомпании Air India Express (IX) при посадке съехал с мокрой полосы Мангалора.

Инцидент произошёл 30 июня 2019 года около 17:30 по местному времени. На борту были 181 пассажир и член экипажа; пострадавших нет.

Самолёт под регистрационным номером VT-AYA (первый полёт 10,3 года назад; выпущен по заказу текущего пользователя) выполнял рейс IX384 из Дубая (DXB) в Мангалор (IXE). При посадке на ВПП 24 в условиях сильного дождя он не успел остановиться в пределах твёрдого покрытия полосы и застрял передним шасси в грязи. Пассажиры были высажены по мобильным трапам, авиалайнер получил незначительные повреждения.

Выводы расследования DGCA

24 июля 2019 года Генеральная дирекция гражданской авиации Индии (DGCA) сообщила, что согласно её данным самолёт выполнил неустойчивый подход на слишком высокой скорости и приземлился в 900 метрах за порогом взлётно-посадочной полосы, оставив себе для пробега и остановки лишь около 1 500 метров (ВПП 06/24 располагает бетонным покрытием длиной 2 450 метров). С учётом погодных условий, это вызвало сход авиалайнера со взлётно-посадочной полосы и его повреждение.

Лицензия капитана воздушного судна была приостановлена на год, следующий за датой происшествия.

Boeing 737-8HGSFPWL авиакомпании Air India Express, инцидент с рейсом IX384 в аэропорту Мангалора (IXE)

Boeing 737-8HGSFPWL авиакомпании Air India Express, инцидент с рейсом IX384 в аэропорту Мангалора (IXE)

VOML 301330Z 05004KT 5000 BR FEW008 SCT012 BKN080 26/24 Q1007 NOSIG=
VOML 301300Z 03005KT 5000 BR FEW008 SCT012 BKN080 26/24 Q1007 NOSIG=
VOML 301230Z 36007KT 6000 FEW008 SCT012 BKN080 27/24 Q1007 TEMPO 4000 -RA=
VOML 301200Z 27010KT 6000 FEW008 SCT012 BKN080 29/24 Q1006 TEMPO 4000 -RA=
VOML 301130Z 28008KT 6000 FEW008 SCT012 BKN080 29/24 Q1006 NOSIG=

Читайте также:  Шасси исландского Boeing 757-200 подломилось после ремонта в Канаде

  Индия

Top.Mail.Ru